createdAt,value
2022-12-25T00:01:47.133Z,22.95
2022-12-25T00:05:48.983Z,25.42
2022-12-25T00:09:50.763Z,26.80
2022-12-25T00:13:52.496Z,30.10
2022-12-25T00:17:54.327Z,21.13
2022-12-25T00:21:56.176Z,20.73
2022-12-25T00:25:58.422Z,23.17
2022-12-25T00:30:01.103Z,20.13
2022-12-25T00:34:03.737Z,18.48
2022-12-25T00:38:05.979Z,26.73
2022-12-25T00:42:19.815Z,22.35
2022-12-25T00:46:21.692Z,25.33
2022-12-25T00:50:23.606Z,17.52
2022-12-25T00:54:25.314Z,23.15
2022-12-25T00:58:29.656Z,26.67
2022-12-25T01:02:31.665Z,24.48
2022-12-25T01:06:33.893Z,25.20
2022-12-25T01:10:35.803Z,17.35
2022-12-25T01:14:37.540Z,25.90
2022-12-25T01:18:39.304Z,22.30
2022-12-25T01:22:41.329Z,29.88
2022-12-25T01:26:43.060Z,27.08
2022-12-25T01:30:49.633Z,26.27
2022-12-25T01:34:55.861Z,15.77
2022-12-25T01:38:58.253Z,22.38
2022-12-25T01:42:59.977Z,19.95
2022-12-25T01:47:05.628Z,28.75
2022-12-25T01:51:17.670Z,18.42
2022-12-25T01:55:19.871Z,16.83
2022-12-25T01:59:23.758Z,21.17
2022-12-25T02:03:25.622Z,23.35
2022-12-25T02:07:29.697Z,20.25
2022-12-25T02:11:49.986Z,21.58
2022-12-25T02:15:51.672Z,25.60
2022-12-25T02:20:02.749Z,17.50
2022-12-25T02:24:23.903Z,20.05
2022-12-25T02:28:32.715Z,21.45
2022-12-25T02:32:43.175Z,18.15
2022-12-25T02:36:51.235Z,19.42
2022-12-25T02:40:59.915Z,27.52
2022-12-25T02:45:20.909Z,20.38
2022-12-25T02:49:43.244Z,18.58
2022-12-25T02:54:05.982Z,21.58
2022-12-25T02:58:31.402Z,22.75
2022-12-25T03:02:53.359Z,19.77
2022-12-25T03:07:10.643Z,18.35
2022-12-25T03:11:31.625Z,17.63
2022-12-25T03:15:53.592Z,25.67
2022-12-25T03:20:14.085Z,23.27
2022-12-25T03:24:54.479Z,26.13
2022-12-25T03:28:56.250Z,28.02
2022-12-25T03:33:44.730Z,26.73
2022-12-25T03:38:28.384Z,27.67
2022-12-25T03:42:57.983Z,23.67
2022-12-25T03:47:21.613Z,32.63
2022-12-25T03:51:48.373Z,24.02
2022-12-25T03:56:11.306Z,26.85
2022-12-25T04:00:32.083Z,32.65
2022-12-25T04:04:52.498Z,28.67
2022-12-25T04:09:12.887Z,19.58
2022-12-25T04:13:34.624Z,26.45
2022-12-25T04:17:54.953Z,25.75
2022-12-25T04:22:15.350Z,29.85
2022-12-25T04:26:35.653Z,28.30
2022-12-25T04:30:56.124Z,27.95
2022-12-25T04:35:18.236Z,29.75
2022-12-25T04:39:19.975Z,25.25
2022-12-25T04:43:25.186Z,24.27
2022-12-25T04:47:27.084Z,28.65
2022-12-25T04:51:28.760Z,25.00
2022-12-25T04:55:30.547Z,26.13
2022-12-25T04:59:32.538Z,34.17
2022-12-25T05:03:34.648Z,25.60
2022-12-25T05:07:36.490Z,27.25
2022-12-25T05:11:38.207Z,24.48
2022-12-25T05:15:40.944Z,32.20
2022-12-25T05:19:43.246Z,29.30
2022-12-25T05:23:51.429Z,23.17
2022-12-25T05:27:54.102Z,28.38
2022-12-25T05:31:56.083Z,24.88
2022-12-25T05:35:57.865Z,28.98
2022-12-25T05:39:59.601Z,24.65
2022-12-25T05:44:01.529Z,22.98
2022-12-25T05:48:03.385Z,17.95
2022-12-25T05:52:05.123Z,17.58
2022-12-25T05:56:08.376Z,24.17
2022-12-25T06:00:10.655Z,20.38
2022-12-25T06:04:15.174Z,21.25
2022-12-25T06:08:17.094Z,11.13
2022-12-25T06:12:18.879Z,17.85
2022-12-25T06:16:20.776Z,13.55
2022-12-25T06:20:22.674Z,18.67
2022-12-25T06:24:24.491Z,11.27
2022-12-25T06:28:26.262Z,15.68
2022-12-25T06:32:27.950Z,17.40
2022-12-25T06:36:29.701Z,11.75
2022-12-25T06:40:31.541Z,10.00
2022-12-25T06:44:33.838Z,14.80
2022-12-25T06:48:37.312Z,15.30
2022-12-25T06:52:39.111Z,11.95
2022-12-25T06:56:41.411Z,12.93
2022-12-25T07:00:43.191Z,11.38
2022-12-25T07:04:45.940Z,8.55
2022-12-25T07:08:47.738Z,17.15
2022-12-25T07:12:49.471Z,10.45
2022-12-25T07:16:52.054Z,12.95
2022-12-25T07:20:55.843Z,10.95
2022-12-25T07:24:57.624Z,8.15
2022-12-25T07:28:59.361Z,12.50
2022-12-25T07:33:01.393Z,13.70
2022-12-25T07:37:03.284Z,11.13
2022-12-25T07:41:08.714Z,7.10
2022-12-25T07:45:11.018Z,6.20
2022-12-25T07:49:12.941Z,7.20
2022-12-25T07:53:14.689Z,11.82
2022-12-25T07:57:16.534Z,6.80
2022-12-25T08:01:27.108Z,5.78
2022-12-25T08:05:28.984Z,9.93
2022-12-25T08:09:30.790Z,7.28
2022-12-25T08:13:33.869Z,8.93
2022-12-25T08:17:35.672Z,8.38
2022-12-25T08:21:38.290Z,10.65
2022-12-25T08:25:39.994Z,8.27
2022-12-25T08:29:44.731Z,11.05
2022-12-25T08:33:47.309Z,7.47
2022-12-25T08:37:49.201Z,7.40
2022-12-25T08:41:50.961Z,9.48
2022-12-25T08:45:52.838Z,9.55
2022-12-25T08:49:54.561Z,9.73
2022-12-25T08:53:59.865Z,14.65
2022-12-25T08:58:03.031Z,16.35
2022-12-25T09:02:05.197Z,13.68
2022-12-25T09:06:12.349Z,14.68
2022-12-25T09:10:14.112Z,15.45
2022-12-25T09:14:15.912Z,16.42
2022-12-25T09:18:17.635Z,21.40
2022-12-25T09:22:19.578Z,18.25
2022-12-25T09:26:21.308Z,17.98
2022-12-25T09:30:23.569Z,15.45
2022-12-25T09:34:25.319Z,18.00
2022-12-25T09:38:27.822Z,10.88
2022-12-25T09:42:31.919Z,12.80
2022-12-25T09:46:45.297Z,11.25
2022-12-25T09:50:50.853Z,15.52
2022-12-25T09:55:19.580Z,10.52
2022-12-25T09:59:26.252Z,13.27
2022-12-25T10:03:59.652Z,11.27
2022-12-25T10:08:07.706Z,11.70
2022-12-25T10:12:27.285Z,11.65
2022-12-25T10:16:37.076Z,15.05
2022-12-25T10:20:58.035Z,20.02
2022-12-25T10:25:02.746Z,9.40
2022-12-25T10:29:13.840Z,17.25
2022-12-25T10:33:17.433Z,15.55
2022-12-25T10:37:19.599Z,12.02
2022-12-25T10:41:30.478Z,12.63
2022-12-25T10:45:43.339Z,17.45
2022-12-25T10:49:45.156Z,12.98
2022-12-25T10:53:46.955Z,13.23
2022-12-25T10:57:48.771Z,17.25
2022-12-25T11:01:55.046Z,12.73
2022-12-25T11:05:57.996Z,12.05
2022-12-25T11:10:18.718Z,15.43
2022-12-25T11:14:22.835Z,11.43
2022-12-25T11:18:27.289Z,11.48
2022-12-25T11:22:29.505Z,15.18
2022-12-25T11:26:45.785Z,15.35
2022-12-25T11:30:53.441Z,11.93
2022-12-25T11:34:56.589Z,17.05
2022-12-25T11:39:28.323Z,19.42
2022-12-25T11:43:40.345Z,14.98
2022-12-25T11:47:55.938Z,15.05
2022-12-25T11:51:58.288Z,11.95
2022-12-25T11:56:08.247Z,15.80
2022-12-25T12:00:14.811Z,22.08
2022-12-25T12:04:30.872Z,15.80
2022-12-25T12:08:36.305Z,14.73
2022-12-25T12:12:56.161Z,15.38
2022-12-25T12:16:58.124Z,16.95
2022-12-25T12:20:59.864Z,11.52
2022-12-25T12:25:06.906Z,15.90
2022-12-25T12:29:23.769Z,16.40
2022-12-25T12:33:30.857Z,16.27
2022-12-25T12:37:36.355Z,16.20
2022-12-25T12:41:49.144Z,14.27
2022-12-25T12:45:58.035Z,17.10
2022-12-25T12:50:01.555Z,19.67
2022-12-25T12:54:17.289Z,16.88
2022-12-25T12:58:51.193Z,16.92
2022-12-25T13:03:26.053Z,16.80
2022-12-25T13:07:44.395Z,15.75
2022-12-25T13:11:46.406Z,15.20
2022-12-25T13:15:50.485Z,16.23
2022-12-25T13:19:56.410Z,17.20
2022-12-25T13:24:10.672Z,20.67
2022-12-25T13:28:14.589Z,15.93
2022-12-25T13:32:26.296Z,16.23
2022-12-25T13:36:30.613Z,17.20
2022-12-25T13:40:32.945Z,15.68
2022-12-25T13:45:06.477Z,16.92
2022-12-25T13:49:15.210Z,12.77
2022-12-25T13:53:18.298Z,13.68
2022-12-25T13:57:22.178Z,10.10
2022-12-25T14:01:24.263Z,13.25
2022-12-25T14:05:28.058Z,14.70
2022-12-25T14:09:30.373Z,15.35
2022-12-25T14:13:37.018Z,14.02
2022-12-25T14:17:38.853Z,13.70
2022-12-25T14:21:49.327Z,15.18
2022-12-25T14:25:51.513Z,14.48
2022-12-25T14:29:56.321Z,14.93
2022-12-25T14:34:03.235Z,13.40
2022-12-25T14:38:06.223Z,12.45
2022-12-25T14:42:20.663Z,14.52
2022-12-25T14:46:25.172Z,14.75
2022-12-25T14:50:28.957Z,17.35
2022-12-25T14:54:30.711Z,15.93
2022-12-25T14:58:40.374Z,19.88
2022-12-25T15:02:45.839Z,14.85
2022-12-25T15:06:57.671Z,18.00
2022-12-25T15:11:02.337Z,14.18
2022-12-25T15:15:05.215Z,18.10
2022-12-25T15:19:09.811Z,16.67
2022-12-25T15:23:20.231Z,16.83
2022-12-25T15:27:22.384Z,14.98
2022-12-25T15:31:27.180Z,18.67
2022-12-25T15:35:29.580Z,19.10
2022-12-25T15:39:31.413Z,22.40
2022-12-25T15:43:41.295Z,19.15
2022-12-25T15:47:43.451Z,23.40
2022-12-25T15:51:45.837Z,18.23
2022-12-25T15:55:47.630Z,21.17
2022-12-25T15:59:49.426Z,21.80
2022-12-25T16:03:51.196Z,19.10
2022-12-25T16:07:52.961Z,19.58
2022-12-25T16:11:54.675Z,27.50
2022-12-25T16:15:56.483Z,19.05
2022-12-25T16:19:58.295Z,21.52
2022-12-25T16:23:59.982Z,17.20
2022-12-25T16:28:03.720Z,23.15
2022-12-25T16:32:05.484Z,23.63
2022-12-25T16:36:07.631Z,24.85
2022-12-25T16:40:10.369Z,33.75
2022-12-25T16:44:12.231Z,27.52
2022-12-25T16:48:14.030Z,34.33
2022-12-25T16:52:15.814Z,25.48
2022-12-25T16:56:20.689Z,24.00
2022-12-25T17:00:22.583Z,24.35
2022-12-25T17:04:25.354Z,22.88
2022-12-25T17:08:27.343Z,29.70
2022-12-25T17:12:29.075Z,26.52
2022-12-25T17:16:36.323Z,30.08
2022-12-25T17:20:38.292Z,28.08
2022-12-25T17:24:41.608Z,28.25
2022-12-25T17:28:43.453Z,29.15
2022-12-25T17:32:45.218Z,30.85
2022-12-25T17:36:47.641Z,32.22
2022-12-25T17:40:56.581Z,29.90
2022-12-25T17:44:58.297Z,33.85
2022-12-25T17:49:01.380Z,30.27
2022-12-25T17:53:05.312Z,32.60
2022-12-25T17:57:07.177Z,25.42
2022-12-25T18:01:15.483Z,32.25
2022-12-25T18:05:17.372Z,30.08
2022-12-25T18:09:19.872Z,31.50
2022-12-25T18:13:22.033Z,27.73
2022-12-25T18:17:23.828Z,34.28
2022-12-25T18:21:26.352Z,30.48
2022-12-25T18:25:28.747Z,33.03
2022-12-25T18:29:30.481Z,35.95
2022-12-25T18:33:32.156Z,34.45
2022-12-25T18:37:39.886Z,31.42
2022-12-25T18:46:04.234Z,39.20
2022-12-25T18:50:07.761Z,36.58
2022-12-25T18:54:10.784Z,37.80
2022-12-25T18:58:12.522Z,37.28
2022-12-25T19:02:15.550Z,40.83
2022-12-25T19:06:23.380Z,41.28
2022-12-25T19:10:25.076Z,37.17
2022-12-25T19:14:28.456Z,38.47
2022-12-25T19:18:30.535Z,37.67
2022-12-25T19:22:32.706Z,47.35
2022-12-25T19:26:36.040Z,44.80
2022-12-25T19:30:38.505Z,41.78
2022-12-25T19:34:40.241Z,42.53
2022-12-25T19:38:43.616Z,37.75
2022-12-25T19:42:45.343Z,40.25
2022-12-25T19:46:47.098Z,33.67
2022-12-25T19:50:49.186Z,37.53
2022-12-25T19:54:52.563Z,34.33
2022-12-25T19:58:55.271Z,34.28
2022-12-25T20:02:57.234Z,33.83
2022-12-25T20:06:59.093Z,30.70
2022-12-25T20:11:02.810Z,31.73
2022-12-25T20:15:04.881Z,35.88
2022-12-25T20:19:07.415Z,31.25
2022-12-25T20:23:09.615Z,32.63
2022-12-25T20:27:11.396Z,34.03
2022-12-25T20:31:20.916Z,32.67
2022-12-25T20:35:22.793Z,32.25
2022-12-25T20:39:24.556Z,31.40
2022-12-25T20:43:26.926Z,32.95
2022-12-25T20:47:28.677Z,36.22
2022-12-25T20:51:30.616Z,30.13
2022-12-25T20:55:32.716Z,32.92
2022-12-25T20:59:37.649Z,32.80
2022-12-25T21:03:40.804Z,37.03
2022-12-25T21:07:42.630Z,33.53
2022-12-25T21:11:44.408Z,39.78
2022-12-25T21:15:47.659Z,31.92
2022-12-25T21:19:49.374Z,35.47
2022-12-25T21:23:51.368Z,36.25
2022-12-25T21:27:53.098Z,38.17
2022-12-25T21:32:13.625Z,30.38
2022-12-25T21:36:15.488Z,37.83
2022-12-25T21:40:17.281Z,35.15
2022-12-25T21:44:19.099Z,36.17
2022-12-25T21:48:20.918Z,33.13
2022-12-25T21:52:22.647Z,39.50
2022-12-25T21:56:25.675Z,31.75
2022-12-25T22:00:27.791Z,32.95
2022-12-25T22:04:29.628Z,31.33
2022-12-25T22:08:32.798Z,26.13
2022-12-25T22:12:52.951Z,23.45
2022-12-25T22:17:13.348Z,26.88
2022-12-25T22:21:22.739Z,25.60
2022-12-25T22:25:25.404Z,24.92
2022-12-25T22:29:27.354Z,24.30
2022-12-25T22:33:30.051Z,25.75
2022-12-25T22:37:31.876Z,23.88
2022-12-25T22:41:33.932Z,25.95
2022-12-25T22:45:35.706Z,18.65
2022-12-25T22:49:37.589Z,26.40
2022-12-25T22:53:39.340Z,21.15
2022-12-25T22:57:41.036Z,23.13
2022-12-25T23:01:43.225Z,17.80
2022-12-25T23:05:44.977Z,21.67
2022-12-25T23:09:46.855Z,24.55
2022-12-25T23:14:07.489Z,19.88
2022-12-25T23:18:28.133Z,22.70
2022-12-25T23:22:48.460Z,24.25
2022-12-25T23:26:50.214Z,19.77
2022-12-25T23:30:51.938Z,23.55
2022-12-25T23:34:55.262Z,19.60
2022-12-25T23:39:01.608Z,23.52
2022-12-25T23:43:07.618Z,19.27
2022-12-25T23:47:09.388Z,23.80
2022-12-25T23:51:11.227Z,26.00
2022-12-25T23:55:13.001Z,21.60
2022-12-25T23:59:15.437Z,23.70
